Saint Thomas, Canada
Current Conditions -  °F | °C
As of 9:00 AM on Thursday 29 Jan 2015 (Local Time) from CYXU Reporting Station
Overcast Overcast  
Wind Chill: 14°   Ceiling: 6100
Heat Index: 27°   Visibility: 15mi
Dew Point: 12°   Wind: 16mph
Humidity: 55%   Direction: 140°SE
Pressure: 29.84"   Gusts: NA
Location:  42.78°N, 81.18°W
Report Text: CYXU 291400Z 14014KT 15SM OVC061 M03/M11 A2984 RMK SC8 SLP121
Loading
Personal Weather Stations






























Interactive Weather Map New forecast layout! Learn more

10-Day Weather Forecast

Advertisements
Track Severe Weather on mobile